Time;durP1;ratioP1;P1;durP2;ratioP2;P2;SDS_P1;SDS_P2;PMS_P1;PMS_P2;Temp;Humidity;BMP_temperature;BMP_pressure;BME280_temperature;BME280_humidity;BME280_pressure;Samples;Min_cycle;Max_cycle;Signal;HPM_P1;HPM_P2
2022/04/19 00:15:03;;;;;;;;;;;;;;;;;;;;;
2022/04/19 01:01:10;;;;;;;4.40;2.92;;;;;;;;;;5944123;24;20649;-84
2022/04/19 01:19:38;;;;;;;;;;;;;;;;;;;;;
2022/04/19 01:24:39;;;;;;;2.10;1.90;;;;;;;;;;5868290;24;20087;-84
2022/04/19 01:29:25;;;;;;;;;;;;;;;;;;;;;
2022/04/19 01:33:22;;;;;;;2.30;2.20;;;;;;;;;;5924697;24;20030;-84
2022/04/19 01:51:21;;;;;;;;;;;;;;;;;;;;;
2022/04/19 02:05:46;;;;;;;2.28;1.88;;;;;;;;;;5748316;24;20585;-84
2022/04/19 02:14:41;;;;;;;1.90;1.73;;;;;;;;;;5783077;24;20030;-84
2022/04/19 02:18:55;;;;;;;3.25;2.22;;;;;;;;;;5715500;24;20364;-84
2022/04/19 02:28:11;;;;;;;;;;;;;;;;;;;;;
2022/04/19 02:32:51;;;;;;;;;;;;;;;;;;;;;
2022/04/19 02:56:01;;;;;;;1.55;1.45;;;;;;;;;;5841449;24;20034;-84
2022/04/19 04:11:32;;;;;;;;;;;;;;;;;;;;;
2022/04/19 05:06:21;;;;;;;4.78;2.15;;;;;;;;;;5938739;24;20520;-84
2022/04/19 05:19:05;;;;;;;2.03;1.80;;;;;;;;;;5975424;23;20026;-85
2022/04/19 05:21:41;;;;;;;1.75;1.65;;;;;;;;;;6101795;23;20026;-85
2022/04/19 05:29:50;;;;;;;3.25;2.35;;;;;;;;;;5888286;24;20022;-84
2022/04/19 05:33:17;;;;;;;2.15;1.75;;;;;;;;;;6054282;23;20013;-85
2022/04/19 05:45:29;;;;;;;;;;;;;;;;;;;;;
2022/04/19 06:07:27;;;;;;;2.10;2.00;;;;;;;;;;5808714;24;20092;-86
2022/04/19 06:16:04;;;;;;;;;;;;;;;;;;;;;
2022/04/19 06:20:34;;;;;;;2.53;2.33;;;;;;;;;;5867565;23;20024;-85
2022/04/19 06:25:12;;;;;;;9.68;4.18;;;;;;;;;;6095790;23;20032;-85
2022/04/19 06:39:11;;;;;;;;;;;;;;;;;;;;;
2022/04/19 06:43:24;;;;;;;1.98;1.88;;;;;;;;;;5849768;24;20033;-85
2022/04/19 06:47:01;;;;;;;3.13;2.40;;;;;;;;;;5840257;24;20037;-84
2022/04/19 06:50:44;;;;;;;3.72;2.90;;;;;;;;;;5823461;24;20052;-84
2022/04/19 06:53:54;;;;;;;2.50;2.30;;;;;;;;;;5856292;24;20025;-85
2022/04/19 06:56:50;;;;;;;1.88;1.77;;;;;;;;;;5890834;24;20058;-84
2022/04/19 06:59:39;;;;;;;2.72;2.25;;;;;;;;;;5878343;24;20041;-84
2022/04/19 07:02:18;;;;;;;3.30;3.05;;;;;;;;;;5889568;24;20141;-84
2022/04/19 07:05:40;;;;;;;3.47;2.78;;;;;;;;;;5908887;24;20040;-84
2022/04/19 07:08:19;;;;;;;2.83;2.63;;;;;;;;;;5885043;24;20037;-83
2022/04/19 07:10:52;;;;;;;2.50;2.30;;;;;;;;;;5894216;24;20025;-84
2022/04/19 07:14:04;;;;;;;3.90;2.20;;;;;;;;;;5963035;23;20031;-83
2022/04/19 07:17:17;;;;;;;2.30;2.20;;;;;;;;;;6004250;23;20027;-82
2022/04/19 07:28:27;;;;;;;2.65;2.45;;;;;;;;;;6132497;23;20337;-83
2022/04/19 07:31:12;;;;;;;2.38;2.22;;;;;;;;;;6145845;23;20033;-82
2022/04/19 07:34:33;;;;;;;8.75;2.22;;;;;;;;;;6122232;23;20041;-83
2022/04/19 07:38:17;;;;;;;5.40;2.45;;;;;;;;;;6032168;23;20023;-82
2022/04/19 07:41:25;;;;;;;3.45;2.88;;;;;;;;;;6100344;23;20036;-84
2022/04/19 07:44:34;;;;;;;5.85;2.53;;;;;;;;;;6102531;23;20029;-85
2022/04/19 07:47:04;;;;;;;2.10;2.00;;;;;;;;;;6123555;23;20029;-83
2022/04/19 07:49:40;;;;;;;4.03;3.35;;;;;;;;;;6109441;23;20018;-84
2022/04/19 07:52:21;;;;;;;3.92;3.30;;;;;;;;;;6113807;23;20014;-84
2022/04/19 07:55:28;;;;;;;2.85;2.60;;;;;;;;;;6087712;23;20030;-85
2022/04/19 07:57:56;;;;;;;2.65;2.45;;;;;;;;;;6130507;23;20028;-84
2022/04/19 08:00:27;;;;;;;2.38;2.28;;;;;;;;;;6136793;23;20037;-84
2022/04/19 08:02:56;;;;;;;3.35;3.05;;;;;;;;;;6105445;23;20460;-85
2022/04/19 08:05:25;;;;;;;4.28;3.33;;;;;;;;;;6142383;23;20036;-84
2022/04/19 08:07:53;;;;;;;5.40;4.47;;;;;;;;;;6185382;23;20760;-83
2022/04/19 08:10:21;;;;;;;4.55;3.33;;;;;;;;;;6150799;23;20024;-84
2022/04/19 08:12:49;;;;;;;3.80;3.42;;;;;;;;;;6187444;23;20013;-83
2022/04/19 08:15:19;;;;;;;8.77;3.47;;;;;;;;;;6150945;23;20028;-85
2022/04/19 08:17:47;;;;;;;4.90;2.80;;;;;;;;;;6158681;23;20013;-84
2022/04/19 08:20:15;;;;;;;4.45;3.30;;;;;;;;;;6162497;23;20455;-83
2022/04/19 08:22:44;;;;;;;4.10;3.13;;;;;;;;;;6130040;23;20024;-85
2022/04/19 08:25:21;;;;;;;9.20;3.58;;;;;;;;;;6184408;23;20013;-84
2022/04/19 08:27:52;;;;;;;3.65;3.35;;;;;;;;;;6152798;23;20017;-84
2022/04/19 08:30:21;;;;;;;4.78;4.28;;;;;;;;;;6128774;23;20029;-85
2022/04/19 08:32:51;;;;;;;3.90;3.53;;;;;;;;;;6126519;23;20029;-84
2022/04/19 08:35:19;;;;;;;4.25;3.85;;;;;;;;;;6178527;23;20029;-85
2022/04/19 08:37:49;;;;;;;4.53;3.92;;;;;;;;;;6158394;23;20029;-83
2022/04/19 08:40:19;;;;;;;4.55;4.03;;;;;;;;;;6151834;23;20025;-85
2022/04/19 08:42:51;;;;;;;3.33;3.03;;;;;;;;;;6131262;23;20029;-84
2022/04/19 08:45:20;;;;;;;6.22;4.88;;;;;;;;;;6151766;23;20472;-85
2022/04/19 08:47:49;;;;;;;4.72;3.25;;;;;;;;;;6128537;23;20021;-85
2022/04/19 08:50:18;;;;;;;3.70;2.72;;;;;;;;;;6130007;23;20361;-85
2022/04/19 08:52:47;;;;;;;3.80;3.10;;;;;;;;;;6131329;23;20017;-85
2022/04/19 08:58:01;;;;;;;4.45;3.20;;;;;;;;;;6157918;23;20025;-85
2022/04/19 09:00:29;;;;;;;8.30;4.82;;;;;;;;;;6137838;23;20043;-86
2022/04/19 09:02:58;;;;;;;4.90;3.28;;;;;;;;;;6151224;23;20349;-85
2022/04/19 09:05:28;;;;;;;4.50;4.05;;;;;;;;;;6128475;23;20029;-85
2022/04/19 09:07:59;;;;;;;4.00;3.60;;;;;;;;;;6102007;23;20028;-84
2022/04/19 09:10:27;;;;;;;2.80;2.60;;;;;;;;;;6100923;23;20025;-85
2022/04/19 09:12:58;;;;;;;3.95;3.55;;;;;;;;;;6102831;23;20456;-84
2022/04/19 09:15:40;;;;;;;5.60;4.93;;;;;;;;;;6127102;23;20472;-86
2022/04/19 09:18:32;;;;;;;4.82;3.47;;;;;;;;;;6110263;23;20021;-85
2022/04/19 09:21:01;;;;;;;5.25;4.72;;;;;;;;;;6194066;23;20013;-85
2022/04/19 09:23:34;;;;;;;4.47;3.97;;;;;;;;;;6134655;23;20017;-85
2022/04/19 09:26:10;;;;;;;13.13;3.58;;;;;;;;;;6166389;23;20024;-85
2022/04/19 09:28:39;;;;;;;3.13;2.83;;;;;;;;;;6134058;23;20017;-85
2022/04/19 09:31:12;;;;;;;5.68;4.43;;;;;;;;;;6133911;23;20031;-85
2022/04/19 09:33:40;;;;;;;6.80;5.78;;;;;;;;;;6157767;23;20021;-85
2022/04/19 09:36:10;;;;;;;10.48;3.90;;;;;;;;;;6133167;23;20101;-84
2022/04/19 09:38:56;;;;;;;6.57;3.88;;;;;;;;;;6112156;23;20040;-85
2022/04/19 09:41:31;;;;;;;6.97;4.57;;;;;;;;;;6141333;23;20037;-86
2022/04/19 09:44:08;;;;;;;4.80;4.40;;;;;;;;;;6132571;23;20039;-85
2022/04/19 09:47:04;;;;;;;4.45;4.03;;;;;;;;;;6132819;23;20029;-85
2022/04/19 09:50:26;;;;;;;4.57;4.05;;;;;;;;;;6129361;23;20452;-85
2022/04/19 09:53:47;;;;;;;7.00;3.25;;;;;;;;;;6112181;23;20021;-84
2022/04/19 09:56:39;;;;;;;5.68;3.97;;;;;;;;;;6139544;23;20024;-85
2022/04/19 09:59:25;;;;;;;6.15;3.65;;;;;;;;;;6157092;23;20445;-88
2022/04/19 10:10:18;;;;;;;3.10;2.80;;;;;;;;;;6121854;23;20025;-86
2022/04/19 10:12:46;;;;;;;4.15;3.30;;;;;;;;;;6123718;23;20445;-83
2022/04/19 10:15:26;;;;;;;3.70;3.40;;;;;;;;;;6149382;23;20029;-82
2022/04/19 10:18:29;;;;;;;7.65;3.72;;;;;;;;;;6157718;23;20021;-83
2022/04/19 10:22:16;;;;;;;4.40;2.83;;;;;;;;;;6140414;23;20464;-83
2022/04/19 10:24:52;;;;;;;5.28;3.53;;;;;;;;;;6134317;23;20013;-83
2022/04/19 10:27:29;;;;;;;14.85;3.50;;;;;;;;;;6098342;23;20041;-83
2022/04/19 10:29:57;;;;;;;3.75;3.42;;;;;;;;;;6152780;23;20033;-83
2022/04/19 10:32:33;;;;;;;4.05;3.65;;;;;;;;;;6158957;23;20021;-87
2022/04/19 10:35:05;;;;;;;4.75;4.05;;;;;;;;;;6150833;23;20037;-88
2022/04/19 10:37:33;;;;;;;8.70;4.15;;;;;;;;;;6147448;23;20029;-87
2022/04/19 10:40:06;;;;;;;5.57;4.15;;;;;;;;;;6123315;23;20025;-86
2022/04/19 10:42:37;;;;;;;6.20;4.07;;;;;;;;;;6155926;23;20017;-82
2022/04/19 10:45:14;;;;;;;5.22;3.50;;;;;;;;;;6158337;23;20013;-84
2022/04/19 10:47:52;;;;;;;6.22;3.75;;;;;;;;;;6107900;23;20029;-83
2022/04/19 10:50:29;;;;;;;3.95;3.58;;;;;;;;;;6128034;23;20119;-83
2022/04/19 10:53:03;;;;;;;7.15;5.95;;;;;;;;;;6159235;23;20013;-83
2022/04/19 10:55:37;;;;;;;5.63;4.47;;;;;;;;;;6173861;23;20025;-83
2022/04/19 10:58:12;;;;;;;4.07;3.70;;;;;;;;;;6124126;23;20025;-82
2022/04/19 11:00:41;;;;;;;6.28;4.18;;;;;;;;;;6099880;23;20017;-83
2022/04/19 11:03:29;;;;;;;5.60;4.75;;;;;;;;;;6101952;23;20471;-83
2022/04/19 11:05:58;;;;;;;4.70;3.72;;;;;;;;;;6124806;23;20025;-83
2022/04/19 11:08:26;;;;;;;5.10;4.63;;;;;;;;;;6097913;23;20021;-83
2022/04/19 11:10:58;;;;;;;10.75;6.03;;;;;;;;;;6122634;23;20025;-83
2022/04/19 11:13:27;;;;;;;10.82;4.45;;;;;;;;;;6122974;23;20018;-83
2022/04/19 11:15:59;;;;;;;4.97;4.35;;;;;;;;;;6156276;23;20041;-83
2022/04/19 11:18:29;;;;;;;6.00;3.85;;;;;;;;;;6146340;23;20025;-83
2022/04/19 11:21:03;;;;;;;6.15;4.18;;;;;;;;;;6123324;23;20022;-83
2022/04/19 11:23:41;;;;;;;5.53;3.42;;;;;;;;;;6124203;23;20365;-81
2022/04/19 11:26:30;;;;;;;12.60;3.63;;;;;;;;;;6148526;23;20029;-84
2022/04/19 11:29:09;;;;;;;4.40;3.90;;;;;;;;;;6124594;23;20453;-84
2022/04/19 11:31:46;;;;;;;3.13;2.92;;;;;;;;;;6149000;23;20476;-85
2022/04/19 11:34:21;;;;;;;4.50;4.10;;;;;;;;;;6122290;23;20033;-80
2022/04/19 11:36:57;;;;;;;4.70;4.05;;;;;;;;;;6171804;23;20017;-80
2022/04/19 11:48:01;;;;;;;4.55;3.30;;;;;;;;;;6155158;23;20017;-80
2022/04/19 11:50:32;;;;;;;4.37;3.20;;;;;;;;;;6148398;23;20448;-79
2022/04/19 11:53:04;;;;;;;5.07;2.95;;;;;;;;;;6158106;23;20018;-80
2022/04/19 11:55:33;;;;;;;3.58;2.90;;;;;;;;;;6147368;23;20548;-80
2022/04/19 11:58:09;;;;;;;2.95;2.75;;;;;;;;;;6120660;23;20330;-80
2022/04/19 12:00:41;;;;;;;4.50;3.50;;;;;;;;;;6158016;23;20014;-80
2022/04/19 12:03:30;;;;;;;4.00;3.45;;;;;;;;;;6148202;23;20026;-82
2022/04/19 12:06:11;;;;;;;3.45;3.15;;;;;;;;;;6171606;23;20021;-80
2022/04/19 12:08:53;;;;;;;3.22;2.50;;;;;;;;;;6127402;23;20025;-79
2022/04/19 12:11:24;;;;;;;3.92;3.53;;;;;;;;;;6125840;23;20476;-80
2022/04/19 12:13:54;;;;;;;4.63;3.45;;;;;;;;;;6181754;23;20021;-79
2022/04/19 12:16:34;;;;;;;5.93;3.25;;;;;;;;;;6187579;23;20028;-80
2022/04/19 12:19:07;;;;;;;3.00;2.80;;;;;;;;;;6121992;23;20472;-80
2022/04/19 12:21:40;;;;;;;2.63;2.42;;;;;;;;;;6176648;23;20028;-80
2022/04/19 12:24:24;;;;;;;4.68;4.28;;;;;;;;;;6149023;23;20017;-79
2022/04/19 12:27:05;;;;;;;4.95;3.78;;;;;;;;;;6151223;23;20467;-80
2022/04/19 12:29:53;;;;;;;2.97;2.75;;;;;;;;;;6150226;23;20013;-78
2022/04/19 12:32:23;;;;;;;2.72;2.53;;;;;;;;;;6150479;23;20017;-79
2022/04/19 12:35:05;;;;;;;7.03;3.15;;;;;;;;;;6179425;23;20021;-82
2022/04/19 12:37:34;;;;;;;2.47;2.22;;;;;;;;;;6184579;23;20025;-79
2022/04/19 12:40:03;;;;;;;3.30;2.13;;;;;;;;;;6187455;23;20020;-80
2022/04/19 12:42:47;;;;;;;3.22;2.90;;;;;;;;;;6182299;23;20052;-80
2022/04/19 12:45:15;;;;;;;3.95;2.83;;;;;;;;;;6187107;23;20336;-80
2022/04/19 12:47:47;;;;;;;3.17;2.92;;;;;;;;;;6187516;23;20017;-79
2022/04/19 12:50:16;;;;;;;3.67;2.33;;;;;;;;;;6182753;23;20040;-80
2022/04/19 12:52:45;;;;;;;3.42;2.17;;;;;;;;;;6127264;23;20715;-80
2022/04/19 12:55:17;;;;;;;3.63;2.25;;;;;;;;;;6176507;23;20032;-79
2022/04/19 12:58:05;;;;;;;8.52;2.72;;;;;;;;;;6177010;23;20028;-78
2022/04/19 13:00:33;;;;;;;3.25;2.95;;;;;;;;;;6187991;23;20024;-78
2022/04/19 13:03:01;;;;;;;3.13;2.00;;;;;;;;;;6179907;23;20028;-83
2022/04/19 13:13:59;;;;;;;;;;;;;;;;;;6151144;23;20040;-81
2022/04/19 13:16:38;;;;;;;3.85;3.55;;;;;;;;;;6129749;23;19920;-87
2022/04/19 13:19:22;;;;;;;2.72;2.17;;;;;;;;;;6127093;23;20025;-86
2022/04/19 13:21:50;;;;;;;6.45;4.13;;;;;;;;;;6184189;23;20486;-81
2022/04/19 13:24:20;;;;;;;2.45;2.25;;;;;;;;;;6151755;23;20017;-83
2022/04/19 13:26:56;;;;;;;2.20;2.00;;;;;;;;;;6151695;23;20032;-85
2022/04/19 13:29:30;;;;;;;2.20;2.00;;;;;;;;;;6150466;23;20032;-84
2022/04/19 13:32:00;;;;;;;2.70;2.53;;;;;;;;;;6126859;23;20017;-81
2022/04/19 13:34:33;;;;;;;3.70;2.42;;;;;;;;;;6112557;23;20036;-84
2022/04/19 13:37:02;;;;;;;3.25;2.88;;;;;;;;;;6183970;23;20024;-82
2022/04/19 13:39:31;;;;;;;9.88;4.00;;;;;;;;;;6149490;23;20029;-81
2022/04/19 13:42:00;;;;;;;2.60;2.13;;;;;;;;;;6150811;23;20025;-84
2022/04/19 13:44:29;;;;;;;5.20;2.60;;;;;;;;;;6186290;23;20763;-81
2022/04/19 13:46:57;;;;;;;2.83;2.58;;;;;;;;;;6179107;23;20051;-80
2022/04/19 13:49:32;;;;;;;2.75;2.53;;;;;;;;;;6158019;23;20024;-82
2022/04/19 13:52:00;;;;;;;2.85;2.67;;;;;;;;;;6187623;23;20014;-80
2022/04/19 13:54:28;;;;;;;3.33;3.03;;;;;;;;;;6180247;23;20028;-80
2022/04/19 13:57:03;;;;;;;4.65;4.03;;;;;;;;;;6186892;23;20017;-81
2022/04/19 13:59:31;;;;;;;2.40;2.20;;;;;;;;;;6174761;23;20511;-80
2022/04/19 14:01:59;;;;;;;3.70;3.08;;;;;;;;;;6175254;23;20029;-81
2022/04/19 14:04:27;;;;;;;2.95;2.22;;;;;;;;;;6184290;23;20021;-80
2022/04/19 14:06:55;;;;;;;2.03;1.85;;;;;;;;;;6099996;23;20056;-81
2022/04/19 14:09:23;;;;;;;4.95;1.95;;;;;;;;;;6132060;23;20020;-81
2022/04/19 14:11:51;;;;;;;3.10;2.80;;;;;;;;;;6186503;23;20013;-82
2022/04/19 14:14:19;;;;;;;5.03;2.28;;;;;;;;;;6149237;23;20033;-81
2022/04/19 14:16:47;;;;;;;2.72;1.73;;;;;;;;;;6184848;23;20017;-79
2022/04/19 14:19:15;;;;;;;2.03;1.83;;;;;;;;;;6176674;23;20364;-80
2022/04/19 14:21:43;;;;;;;2.22;1.00;;;;;;;;;;6182857;23;20028;-82
2022/04/19 14:24:12;;;;;;;1.38;1.00;;;;;;;;;;6186240;23;20314;-80
2022/04/19 14:26:40;;;;;;;2.17;2.08;;;;;;;;;;6180098;23;20025;-82
2022/04/19 14:34:42;;;;;;;1.00;1.00;;;;;;;;;;6179900;23;20029;-82
2022/04/19 14:37:10;;;;;;;0.80;0.80;;;;;;;;;;6161706;23;20016;-83
2022/04/19 14:39:38;;;;;;;1.00;1.00;;;;;;;;;;6160200;23;20024;-81
2022/04/19 14:42:06;;;;;;;1.40;1.30;;;;;;;;;;6184448;23;20345;-82
2022/04/19 14:44:34;;;;;;;1.77;1.67;;;;;;;;;;6186924;23;20051;-80
2022/04/19 14:47:03;;;;;;;1.98;1.30;;;;;;;;;;6178002;23;20029;-80
2022/04/19 14:49:31;;;;;;;1.67;1.58;;;;;;;;;;6179940;23;20052;-84
2022/04/19 14:52:17;;;;;;;1.92;1.75;;;;;;;;;;6186957;23;20452;-80
2022/04/19 14:54:46;;;;;;;1.58;1.48;;;;;;;;;;6152566;23;20644;-80
2022/04/19 14:57:15;;;;;;;4.28;1.73;;;;;;;;;;6186757;23;20017;-81
2022/04/19 14:59:44;;;;;;;4.00;2.03;;;;;;;;;;6187129;23;20016;-80
2022/04/19 15:02:12;;;;;;;2.05;1.52;;;;;;;;;;6182977;23;20032;-81
2022/04/19 15:04:40;;;;;;;1.70;1.60;;;;;;;;;;6184792;23;20028;-81
2022/04/19 15:07:08;;;;;;;1.25;1.15;;;;;;;;;;6178428;23;20033;-78
2022/04/19 15:09:36;;;;;;;3.88;3.50;;;;;;;;;;6183060;23;20024;-80
2022/04/19 15:12:05;;;;;;;1.83;1.30;;;;;;;;;;6183667;23;20013;-81
2022/04/19 15:14:35;;;;;;;1.35;1.25;;;;;;;;;;6180071;23;20456;-80
2022/04/19 15:17:03;;;;;;;2.67;2.22;;;;;;;;;;6186349;23;20551;-81
2022/04/19 15:19:33;;;;;;;1.63;1.38;;;;;;;;;;6177420;23;20479;-82
2022/04/19 15:22:02;;;;;;;1.80;1.70;;;;;;;;;;6177574;23;20021;-81
2022/04/19 15:24:31;;;;;;;1.77;1.67;;;;;;;;;;6186947;23;20020;-82
2022/04/19 15:26:59;;;;;;;1.67;1.58;;;;;;;;;;6180068;23;20028;-82
2022/04/19 15:29:30;;;;;;;1.50;1.40;;;;;;;;;;6185332;23;20029;-81
2022/04/19 15:31:58;;;;;;;;;;;;;;;;;;6188425;23;20017;-80
2022/04/19 15:34:26;;;;;;;1.98;1.65;;;;;;;;;;6181720;23;19924;-81
2022/04/19 15:36:58;;;;;;;3.15;1.77;;;;;;;;;;6103757;23;20020;-80
2022/04/19 15:39:26;;;;;;;2.47;2.28;;;;;;;;;;6177243;23;20040;-81
2022/04/19 15:41:54;;;;;;;2.00;1.90;;;;;;;;;;6183686;23;20032;-80
2022/04/19 15:44:25;;;;;;;2.85;2.47;;;;;;;;;;6188800;23;20017;-81
2022/04/19 15:46:53;;;;;;;2.58;2.17;;;;;;;;;;6178484;23;20021;-80
2022/04/19 15:49:21;;;;;;;4.30;3.22;;;;;;;;;;6185688;23;20024;-80
2022/04/19 15:51:50;;;;;;;2.30;1.80;;;;;;;;;;6187758;23;20067;-81
2022/04/19 15:54:18;;;;;;;5.30;2.10;;;;;;;;;;6181622;23;20021;-82
2022/04/19 15:56:46;;;;;;;5.13;2.22;;;;;;;;;;6188415;23;20017;-81
2022/04/19 15:59:14;;;;;;;2.55;1.75;;;;;;;;;;6177333;23;20029;-81
2022/04/19 16:01:43;;;;;;;3.95;1.55;;;;;;;;;;6184519;23;20032;-80
2022/04/19 16:04:12;;;;;;;1.67;1.48;;;;;;;;;;6187535;23;20040;-84
2022/04/19 16:06:40;;;;;;;1.50;1.40;;;;;;;;;;6181085;23;20029;-81
2022/04/19 16:09:08;;;;;;;1.50;1.40;;;;;;;;;;6185613;23;20013;-84
2022/04/19 16:11:39;;;;;;;;;;;;;;;;;;6128442;23;20463;-83
2022/04/19 16:14:07;;;;;;;1.38;1.27;;;;;;;;;;6125452;23;20515;-83
2022/04/19 16:24:59;;;;;;;3.10;1.30;;;;;;;;;;6185024;23;20016;-81
2022/04/19 16:27:29;;;;;;;7.50;1.35;;;;;;;;;;6176553;23;20768;-81
2022/04/19 16:29:57;;;;;;;1.67;1.58;;;;;;;;;;6182204;23;20025;-82
2022/04/19 16:32:25;;;;;;;4.60;1.90;;;;;;;;;;6126572;23;20016;-80
2022/04/19 16:34:53;;;;;;;2.63;2.00;;;;;;;;;;6152736;23;20401;-77
2022/04/19 16:37:21;;;;;;;2.55;1.67;;;;;;;;;;6185642;23;20036;-77
2022/04/19 16:39:49;;;;;;;3.35;2.00;;;;;;;;;;6186112;23;20017;-77
2022/04/19 16:42:17;;;;;;;1.70;1.38;;;;;;;;;;6154827;23;20428;-79
2022/04/19 16:44:45;;;;;;;3.25;1.92;;;;;;;;;;6187353;23;20024;-78
2022/04/19 16:47:13;;;;;;;5.18;1.80;;;;;;;;;;6177987;23;20025;-80
2022/04/19 16:49:42;;;;;;;4.40;3.10;;;;;;;;;;6175518;23;20073;-77
2022/04/19 16:52:10;;;;;;;2.45;1.90;;;;;;;;;;6150561;23;20028;-78
2022/04/19 16:54:38;;;;;;;3.67;2.63;;;;;;;;;;6150897;23;20029;-78
2022/04/19 16:57:06;;;;;;;7.43;3.22;;;;;;;;;;6186294;23;20052;-78
2022/04/19 16:59:34;;;;;;;3.50;3.22;;;;;;;;;;6149462;23;20029;-85
2022/04/19 17:02:02;;;;;;;2.88;2.58;;;;;;;;;;6150319;23;20020;-80
2022/04/19 17:04:30;;;;;;;3.88;3.47;;;;;;;;;;6185428;23;20384;-78
2022/04/19 17:06:58;;;;;;;2.75;2.55;;;;;;;;;;6179197;23;20486;-79
2022/04/19 17:09:27;;;;;;;7.22;3.58;;;;;;;;;;6183304;23;20016;-80
2022/04/19 17:11:55;;;;;;;6.60;3.75;;;;;;;;;;6187416;23;20016;-79
2022/04/19 17:14:23;;;;;;;3.95;3.38;;;;;;;;;;6150445;23;20032;-80
2022/04/19 17:16:52;;;;;;;3.85;3.55;;;;;;;;;;6187860;23;20012;-80
2022/04/19 17:19:20;;;;;;;7.57;4.97;;;;;;;;;;6177128;23;20748;-81
2022/04/19 17:21:48;;;;;;;3.90;3.50;;;;;;;;;;6133561;23;20025;-80
2022/04/19 17:24:16;;;;;;;6.35;3.47;;;;;;;;;;6186349;23;20062;-81
2022/04/19 17:26:45;;;;;;;3.55;3.35;;;;;;;;;;6177549;23;20032;-79
2022/04/19 17:29:13;;;;;;;3.63;3.33;;;;;;;;;;6185524;23;20043;-80
2022/04/19 17:31:41;;;;;;;5.15;3.88;;;;;;;;;;6187697;23;20024;-81
2022/04/19 17:34:09;;;;;;;5.78;4.55;;;;;;;;;;6182137;23;20321;-81
2022/04/19 17:36:37;;;;;;;5.97;3.63;;;;;;;;;;6161067;23;20013;-81
2022/04/19 17:39:06;;;;;;;5.25;4.20;;;;;;;;;;6148278;23;20028;-79
2022/04/19 17:41:35;;;;;;;2.90;2.67;;;;;;;;;;6158690;23;20356;-85
2022/04/19 17:44:05;;;;;;;4.03;3.72;;;;;;;;;;6189207;23;20013;-88
2022/04/19 17:46:34;;;;;;;5.63;4.65;;;;;;;;;;6154617;23;20025;-84
2022/04/19 17:49:02;;;;;;;4.72;4.30;;;;;;;;;;6159966;23;20448;-83
2022/04/19 17:57:24;;;;;;;4.30;3.97;;;;;;;;;;6056684;23;20032;-87
2022/04/19 17:59:56;;;;;;;4.95;4.45;;;;;;;;;;6056463;23;20696;-84
2022/04/19 18:02:24;;;;;;;5.43;4.35;;;;;;;;;;6122129;23;20032;-81
2022/04/19 18:04:52;;;;;;;5.28;4.15;;;;;;;;;;6183784;23;20017;-86
2022/04/19 18:07:20;;;;;;;7.03;4.38;;;;;;;;;;6175786;23;20032;-86
2022/04/19 18:09:48;;;;;;;4.50;3.97;;;;;;;;;;6181269;23;20032;-84
2022/04/19 18:12:18;;;;;;;8.13;4.32;;;;;;;;;;6127272;23;20028;-83
2022/04/19 18:14:48;;;;;;;4.90;4.25;;;;;;;;;;6155593;23;20029;-81
2022/04/19 18:17:17;;;;;;;4.00;3.60;;;;;;;;;;6161807;23;20017;-81
2022/04/19 18:19:46;;;;;;;5.30;4.90;;;;;;;;;;6178253;23;20013;-82
2022/04/19 18:25:10;;;;;;;5.07;4.68;;;;;;;;;;6123132;23;20017;-82
2022/04/19 18:27:37;;;;;;;;;;;;;;;;;;6127719;23;20024;-84
2022/04/19 18:30:06;;;;;;;6.13;5.53;;;;;;;;;;6127050;23;20251;-82
2022/04/19 18:32:42;;;;;;;4.28;3.40;;;;;;;;;;6189506;23;20017;-82
2022/04/19 18:35:12;;;;;;;6.68;6.15;;;;;;;;;;6127707;23;20044;-82
2022/04/19 18:37:46;;;;;;;5.28;4.43;;;;;;;;;;6184925;23;20604;-83
2022/04/19 18:40:15;;;;;;;6.10;5.60;;;;;;;;;;6151646;23;20017;-82
2022/04/19 18:42:43;;;;;;;4.88;4.47;;;;;;;;;;6182087;23;20025;-83
2022/04/19 18:45:11;;;;;;;5.15;4.55;;;;;;;;;;6185599;23;20039;-82
2022/04/19 18:47:44;;;;;;;3.40;3.20;;;;;;;;;;6187364;23;20021;-82
2022/04/19 18:50:24;;;;;;;4.82;4.00;;;;;;;;;;6177721;23;20029;-82
2022/04/19 18:52:53;;;;;;;4.72;4.32;;;;;;;;;;6125378;23;20032;-81
2022/04/19 18:55:23;;;;;;;5.60;5.05;;;;;;;;;;6151320;23;20033;-82
2022/04/19 18:57:56;;;;;;;5.03;4.68;;;;;;;;;;6177586;23;20448;-82
2022/04/19 19:00:26;;;;;;;5.32;4.93;;;;;;;;;;6178596;23;20027;-82
2022/04/19 19:02:58;;;;;;;5.05;4.65;;;;;;;;;;6177715;23;20032;-81
2022/04/19 19:05:29;;;;;;;5.18;4.60;;;;;;;;;;6178056;23;20024;-82
2022/04/19 19:07:57;;;;;;;5.03;4.70;;;;;;;;;;6161087;23;20017;-82
2022/04/19 19:10:26;;;;;;;5.65;4.70;;;;;;;;;;6126067;23;20036;-82
2022/04/19 19:12:55;;;;;;;5.20;4.70;;;;;;;;;;6152082;23;20024;-82
2022/04/19 19:15:34;;;;;;;4.97;4.50;;;;;;;;;;6150369;23;20025;-82
2022/04/19 19:28:08;;;;;;;4.50;4.13;;;;;;;;;;5865155;24;20084;-81
2022/04/19 19:41:46;;;;;;;;;;;;;;;;;;;;;
2022/04/19 19:54:05;;;;;;;2.70;2.50;;;;;;;;;;5787036;24;20134;-81
2022/04/19 20:12:40;;;;;;;;;;;;;;;;;;;;;
2022/04/19 20:16:27;;;;;;;4.78;4.30;;;;;;;;;;5806698;24;20030;-81
2022/04/19 20:30:02;;;;;;;4.82;4.40;;;;;;;;;;5907837;23;20342;-81
2022/04/19 20:32:35;;;;;;;6.22;5.72;;;;;;;;;;6072445;23;20030;-81
2022/04/19 21:40:03;;;;;;;;;;;;;;;;;;;;;
2022/04/19 21:44:40;;;;;;;4.13;3.40;;;;;;;;;;5889559;24;20472;-80
2022/04/19 21:47:23;;;;;;;6.32;5.47;;;;;;;;;;5944003;23;20024;-84
2022/04/19 21:50:05;;;;;;;6.22;4.93;;;;;;;;;;6136657;23;20029;-84
2022/04/19 21:53:02;;;;;;;6.40;5.10;;;;;;;;;;6142007;23;20024;-84
2022/04/19 21:55:43;;;;;;;6.15;5.05;;;;;;;;;;6153321;23;20029;-85
2022/04/19 21:58:17;;;;;;;6.28;5.70;;;;;;;;;;6178441;23;20028;-86
2022/04/19 22:01:02;;;;;;;7.45;5.05;;;;;;;;;;6189684;23;20021;-85
2022/04/19 22:03:31;;;;;;;5.50;5.05;;;;;;;;;;6127615;23;20029;-85
2022/04/19 22:06:00;;;;;;;6.47;5.22;;;;;;;;;;6152287;23;20456;-85
2022/04/19 22:08:28;;;;;;;6.35;5.43;;;;;;;;;;6150576;23;20021;-86
2022/04/19 22:10:58;;;;;;;6.38;5.60;;;;;;;;;;6152057;23;20028;-86
2022/04/19 22:13:26;;;;;;;6.15;5.70;;;;;;;;;;6152070;23;20020;-85
2022/04/19 22:15:54;;;;;;;5.43;4.95;;;;;;;;;;6162827;23;20024;-85
2022/04/19 22:18:25;;;;;;;5.20;4.72;;;;;;;;;;6176297;23;20060;-85
2022/04/19 22:20:54;;;;;;;5.68;4.82;;;;;;;;;;6153284;23;20634;-84
2022/04/19 22:23:24;;;;;;;5.35;4.95;;;;;;;;;;6152790;23;20029;-85
2022/04/19 22:25:52;;;;;;;5.85;5.35;;;;;;;;;;6158974;23;20024;-85
2022/04/19 22:28:22;;;;;;;9.82;5.88;;;;;;;;;;6151746;23;20031;-84
2022/04/19 22:30:51;;;;;;;6.18;5.50;;;;;;;;;;6127713;23;20040;-84
2022/04/19 22:33:19;;;;;;;5.88;5.38;;;;;;;;;;6136165;23;20013;-85
2022/04/19 22:35:48;;;;;;;7.10;5.80;;;;;;;;;;6163104;23;20035;-84
2022/04/19 22:38:16;;;;;;;5.63;5.13;;;;;;;;;;6126809;23;20024;-85
2022/04/19 22:40:45;;;;;;;7.00;5.25;;;;;;;;;;6188985;23;20348;-84
2022/04/19 22:43:13;;;;;;;6.72;6.22;;;;;;;;;;6152250;23;20052;-85
2022/04/19 22:45:43;;;;;;;5.18;4.72;;;;;;;;;;6103072;23;20020;-84
2022/04/19 22:48:12;;;;;;;5.95;5.38;;;;;;;;;;6162500;23;20024;-84
2022/04/19 22:50:41;;;;;;;6.47;5.88;;;;;;;;;;6127774;23;20029;-85
2022/04/19 22:53:10;;;;;;;5.80;5.30;;;;;;;;;;6161011;23;20340;-84
2022/04/19 22:55:38;;;;;;;5.50;4.97;;;;;;;;;;6188714;23;20020;-84
2022/04/19 22:58:06;;;;;;;5.05;4.70;;;;;;;;;;6175682;23;20329;-85
2022/04/19 23:00:36;;;;;;;7.13;6.53;;;;;;;;;;6128076;23;20348;-84
2022/04/19 23:03:06;;;;;;;6.43;4.97;;;;;;;;;;6180450;23;20029;-84
2022/04/19 23:05:34;;;;;;;5.05;4.72;;;;;;;;;;6186743;23;20025;-84
2022/04/19 23:08:02;;;;;;;5.90;5.38;;;;;;;;;;6160808;23;20725;-85
2022/04/19 23:10:30;;;;;;;4.75;4.22;;;;;;;;;;6182168;23;20029;-85
2022/04/19 23:12:59;;;;;;;5.63;5.13;;;;;;;;;;6127999;23;20021;-84
2022/04/19 23:15:28;;;;;;;6.55;5.72;;;;;;;;;;6127494;23;20531;-84
2022/04/19 23:17:56;;;;;;;6.22;5.63;;;;;;;;;;6151346;23;20013;-84
2022/04/19 23:20:25;;;;;;;6.85;5.80;;;;;;;;;;6127606;23;20353;-84
2022/04/19 23:22:53;;;;;;;8.25;7.47;;;;;;;;;;6127094;23;20491;-84
2022/04/19 23:25:21;;;;;;;6.60;6.00;;;;;;;;;;6127046;23;20025;-84
2022/04/19 23:27:59;;;;;;;5.38;4.97;;;;;;;;;;6189176;23;20336;-84
2022/04/19 23:30:28;;;;;;;6.60;5.90;;;;;;;;;;6102667;23;20024;-84
2022/04/19 23:32:56;;;;;;;6.85;6.25;;;;;;;;;;6188018;23;20020;-84
2022/04/19 23:35:24;;;;;;;8.57;5.30;;;;;;;;;;6178077;23;20020;-84
2022/04/19 23:37:52;;;;;;;5.53;4.78;;;;;;;;;;6157814;23;20032;-84
2022/04/19 23:40:20;;;;;;;8.30;5.00;;;;;;;;;;6188481;23;20752;-85
2022/04/19 23:42:48;;;;;;;6.53;5.95;;;;;;;;;;6154642;23;20025;-85
2022/04/19 23:45:16;;;;;;;5.15;4.70;;;;;;;;;;6186955;23;20021;-85
2022/04/19 23:47:44;;;;;;;4.28;3.90;;;;;;;;;;6161782;23;20475;-85
2022/04/19 23:50:12;;;;;;;6.03;5.20;;;;;;;;;;6156877;23;20048;-86
2022/04/19 23:52:40;;;;;;;6.50;4.28;;;;;;;;;;6127656;23;20356;-85
2022/04/19 23:55:09;;;;;;;5.47;5.00;;;;;;;;;;6153033;23;20044;-85
2022/04/19 23:57:37;;;;;;;4.47;4.07;;;;;;;;;;6134939;23;20027;-85
